x

Smith Island, Wa (sisw1) Weather Station

11:00pm - Thu 23rd Nov 2017 All times are PST. -8 hours from GMT.

  • Wind
    7mph, 7mph gusts
  • Air Temp 47°f
  • Sea Pressure 1013.3mb
  • Smith Island, Wa
  • Smith Island, Wa

More Historic Weather Station data

Upgrade to MSW Pro to gain access to the past 30 days of data for over 8000 Wavebouys and Weather Stations around the globe.

Join

Comparision Forecast

View Surf forecast
   
Thu 11/23 11:00pm 7 7 mph 1013.3mb 47f
10:00pm 2 3 mph 1012.6mb 48f
9:00pm 7 8 mph 1012.1mb 47f
8:00pm 8 9 mph 1012mb 48f
7:00pm 7 10 mph 1011.7mb 49f
6:00pm 3 6 mph 1011.2mb 50f
5:00pm 9 11 mph 1011mb 51f
4:00pm 8 9 mph 1010.4mb 50f
3:00pm 8 10 mph 1009.6mb 51f
2:00pm 13 16 mph 1009mb 51f
1:00pm 21 23 mph 1008.6mb 51f
12:00pm 26 31 mph 1008.5mb 51f
11:00am 24 29 mph 1008.5mb 50f
10:00am 20 23 mph 1008.7mb 50f
9:00am 18 22 mph 1008.7mb 51f
8:00am 10 13 mph 1009mb 51f
7:00am 7 8 mph 1009.1mb 51f
6:00am 5 5 mph 1009mb 52f
5:00am 7 8 mph 1009.3mb 53f
4:00am 5 6 mph 1009.6mb 51f
3:00am 5 7 mph 1009.8mb 54f
2:00am 2 5 mph 1009.6mb 53f
1:00am 10 13 mph 1009.3mb 53f
12:00am 6 7 mph 1008.8mb 53f
Wed 11/22 11:00pm 3 5 mph 1009mb 53f
10:00pm 7 7 mph 1008.6mb 56f
9:00pm 7 8 mph 1009mb 55f
8:00pm 14 20 mph 1008.9mb 54f
7:00pm 32 37 mph 1007.5mb 58f
6:00pm 39 44 mph 1007.4mb 58f
5:00pm 36 39 mph 1008.2mb 57f
4:00pm 25 28 mph 1009.3mb 56f
3:00pm 30 33 mph 1009.9mb 58f
2:00pm 36 39 mph 1009.7mb 60f
1:00pm 41 47 mph 1009.5mb 60f
12:00pm 43 46 mph 1010.4mb 60f
11:00am 39 43 mph 1011.4mb 58f
10:00am 37 40 mph 1011.7mb 57f
9:00am 30 32 mph 1012mb 55f
8:00am 24 25 mph 1012.1mb 56f
7:00am 6 6 mph 1012.8mb 53f
6:00am 5 5 mph 1012.7mb 50f
5:00am 5 6 mph 1012.5mb 49f
4:00am 5 5 mph 1012.1mb 49f
3:00am 11 13 mph 1012mb 49f
2:00am 16 17 mph 1012.3mb 54f
1:00am 15 16 mph 1012.1mb 53f
12:00am  -  0 mph 1012.4mb 50f
Tue 11/21 9:00pm 6 7 mph 1011.1mb 49f
8:00pm 22 23 mph 1009.4mb 54f
7:00pm 14 17 mph 1009.3mb 53f
6:00pm 25 28 mph 1008.3mb 52f
5:00pm 29 32 mph 1007.9mb 52f
4:00pm 29 33 mph 1007mb 52f
3:00pm 34 39 mph 1006.8mb 49f
2:00pm 32 34 mph 1007.2mb 50f
1:00pm 3 3 mph 1009.1mb 47f
12:00pm 7 8 mph 1011.2mb 45f
11:00am 15 17 mph 1013mb 44f
10:00am 14 15 mph 1013.9mb 44f
9:00am 13 14 mph 1014.2mb 43f
8:00am 15 17 mph 1014.3mb 42f
7:00am 15 16 mph 1015mb 42f
6:00am 8 9 mph 1015.9mb 42f
5:00am 10 11 mph 1015.9mb 43f
4:00am 16 17 mph 1015.9mb 42f
3:00am 13 15 mph 1017mb 42f
2:00am 14 15 mph 1017.2mb 42f
1:00am 14 15 mph 1017.7mb 43f
12:00am 13 15 mph 1018.1mb 44f
Mon 11/20 11:00pm 13 13 mph 1018.4mb 44f
10:00pm 9 10 mph 1018.6mb 46f
9:00pm 13 13 mph 1017.6mb 46f
8:00pm 9 11 mph 1016.8mb 47f
7:00pm 8 8 mph 1015.8mb 47f
6:00pm 6 8 mph 1014.4mb 47f
5:00pm 11 15 mph 1013.5mb 48f
4:00pm 14 20 mph 1012.5mb 49f
3:00pm 21 26 mph 1011.2mb 49f
2:00pm 30 34 mph 1009.8mb 48f
1:00pm 23 26 mph 1008.5mb 48f
12:00pm 16 17 mph 1007.2mb 47f
11:00am 15 18 mph 1005.8mb 47f
10:00am 11 15 mph 1004.1mb 46f
9:00am 11 14 mph 1002mb 47f